This is the latest recevied weather packets stored in our database for station/object DG1GMY-13. If no packets are shown the sender has not sent any weather packets the latest 1 day(s).
| Time | Temp. | Humidity | Pressure | Rain* | Wind** | Luminosity | Snow |
|---|---|---|---|---|---|---|---|
| 1778073930 | 15.56° C | 79% | 1007.7 hPa | - | - | - | - |
| 1778072124 | 16.67° C | 68% | 1007.4 hPa | - | - | - | - |
| 1778070318 | 19.44° C | 63% | 1007.1 hPa | - | - | - | - |
| 1778068512 | 17.78° C | 64% | 1007.2 hPa | - | - | - | - |
| 1778066706 | 17.78° C | 67% | 1007.2 hPa | - | - | - | - |
| 1778064900 | 18.33° C | 67% | 1007.4 hPa | - | - | - | - |
| 1778063096 | 17.22° C | 73% | 1007.8 hPa | - | - | - | - |
| 1778061288 | 16.67° C | 77% | 1007.7 hPa | - | - | - | - |
| 1778059482 | 15.56° C | 83% | 1007.8 hPa | - | - | - | - |
| 1778057677 | 16.11° C | 78% | 1007.8 hPa | - | - | - | - |
| 1778055870 | 16.11° C | 82% | 1007.7 hPa | - | - | - | - |
| 1778054064 | 15.56° C | 86% | 1007.5 hPa | - | - | - | - |
| 1778052258 | 15° C | 86% | 1007.4 hPa | - | - | - | - |
| 1778050452 | 15° C | 90% | 1007.3 hPa | - | - | - | - |
| 1778048646 | 13.89° C | 96% | 1007.6 hPa | - | - | - | - |
| 1778046840 | 12.22° C | 100% | 1007.8 hPa | - | - | - | - |
| 1778045034 | 11.11° C | 100% | 1007.8 hPa | - | - | - | - |
| 1778043228 | 11.67° C | 100% | 1007.8 hPa | - | - | - | - |
| 1778041422 | 11.11° C | 100% | 1007.9 hPa | - | - | - | - |
| 1778039616 | 11.11° C | 100% | 1007.7 hPa | - | - | - | - |
| 1778032393 | 12.22° C | 100% | 1008.5 hPa | - | - | - | - |
| 1778030587 | 12.78° C | 100% | 1008.3 hPa | - | - | - | - |
| 1778028781 | 12.78° C | 100% | 1008.5 hPa | - | - | - | - |
| 1778026975 | 12.78° C | 100% | 1008.9 hPa | - | - | - | - |
| 1778025169 | 12.78° C | 100% | 1009 hPa | - | - | - | - |
* Rain since midnight (hover to see other rain measurements)
** Current wind speed in m/s (hover to see current wind gust speed)